sensor_id;sensor_type;location;lat;lon;timestamp;pressure;altitude;pressure_sealevel;temperature;humidity
15880;BME280;61999;51.514;14.614;2023-03-15T00:00:03;99272.66;;;-6.81;89.83
15880;BME280;61999;51.514;14.614;2023-03-15T00:02:34;99273.09;;;-7.03;90.06
15880;BME280;61999;51.514;14.614;2023-03-15T00:05:03;99276.13;;;-6.84;89.53
15880;BME280;61999;51.514;14.614;2023-03-15T00:07:31;99267.25;;;-6.68;88.57
15880;BME280;61999;51.514;14.614;2023-03-15T00:09:59;99272.19;;;-6.60;87.54
15880;BME280;61999;51.514;14.614;2023-03-15T00:12:27;99276.56;;;-5.89;84.38
15880;BME280;61999;51.514;14.614;2023-03-15T00:14:56;99271.28;;;-6.19;83.95
15880;BME280;61999;51.514;14.614;2023-03-15T00:17:24;99277.75;;;-6.02;84.87
15880;BME280;61999;51.514;14.614;2023-03-15T00:19:53;99282.81;;;-5.31;82.21
15880;BME280;61999;51.514;14.614;2023-03-15T00:22:21;99285.69;;;-5.43;80.68
15880;BME280;61999;51.514;14.614;2023-03-15T00:24:49;99298.56;;;-5.79;79.84
15880;BME280;61999;51.514;14.614;2023-03-15T00:27:17;99294.53;;;-6.25;82.21
15880;BME280;61999;51.514;14.614;2023-03-15T00:29:46;99301.13;;;-5.79;80.35
15880;BME280;61999;51.514;14.614;2023-03-15T00:32:14;99302.31;;;-5.23;80.24
15880;BME280;61999;51.514;14.614;2023-03-15T00:34:42;99304.94;;;-5.59;78.26
15880;BME280;61999;51.514;14.614;2023-03-15T00:37:16;99309.69;;;-5.80;78.59
15880;BME280;61999;51.514;14.614;2023-03-15T00:39:46;99317.47;;;-5.83;79.35
15880;BME280;61999;51.514;14.614;2023-03-15T00:42:14;99322.44;;;-5.77;79.96
15880;BME280;61999;51.514;14.614;2023-03-15T00:44:42;99326.84;;;-6.18;80.08
15880;BME280;61999;51.514;14.614;2023-03-15T00:47:13;99327.19;;;-6.33;81.21
15880;BME280;61999;51.514;14.614;2023-03-15T00:49:41;99333.00;;;-6.67;82.00
15880;BME280;61999;51.514;14.614;2023-03-15T00:52:09;99334.78;;;-6.70;83.70
15880;BME280;61999;51.514;14.614;2023-03-15T00:54:39;99343.13;;;-6.61;83.90
15880;BME280;61999;51.514;14.614;2023-03-15T00:57:07;99341.13;;;-6.88;84.20
15880;BME280;61999;51.514;14.614;2023-03-15T00:59:35;99344.47;;;-7.31;86.37
15880;BME280;61999;51.514;14.614;2023-03-15T01:02:05;99349.22;;;-7.11;86.27
15880;BME280;61999;51.514;14.614;2023-03-15T01:04:34;99345.69;;;-7.06;85.56
15880;BME280;61999;51.514;14.614;2023-03-15T01:07:02;99355.69;;;-6.90;85.14
15880;BME280;61999;51.514;14.614;2023-03-15T01:09:31;99353.22;;;-6.96;84.78
15880;BME280;61999;51.514;14.614;2023-03-15T01:12:00;99354.59;;;-6.80;83.42
15880;BME280;61999;51.514;14.614;2023-03-15T01:14:29;99360.31;;;-6.66;82.78
15880;BME280;61999;51.514;14.614;2023-03-15T01:16:57;99362.41;;;-6.43;82.68
15880;BME280;61999;51.514;14.614;2023-03-15T01:19:25;99369.59;;;-6.60;81.61
15880;BME280;61999;51.514;14.614;2023-03-15T01:21:52;99373.19;;;-7.14;83.33
15880;BME280;61999;51.514;14.614;2023-03-15T01:24:20;99374.88;;;-7.13;83.83
15880;BME280;61999;51.514;14.614;2023-03-15T01:26:48;99372.19;;;-7.05;83.14
15880;BME280;61999;51.514;14.614;2023-03-15T01:29:18;99374.75;;;-7.07;83.91
15880;BME280;61999;51.514;14.614;2023-03-15T01:31:45;99387.78;;;-7.19;83.51
15880;BME280;61999;51.514;14.614;2023-03-15T01:34:13;99385.44;;;-7.31;84.50
15880;BME280;61999;51.514;14.614;2023-03-15T01:36:41;99385.50;;;-7.37;84.86
15880;BME280;61999;51.514;14.614;2023-03-15T01:39:09;99390.47;;;-7.25;85.10
15880;BME280;61999;51.514;14.614;2023-03-15T01:41:37;99398.63;;;-7.04;83.65
15880;BME280;61999;51.514;14.614;2023-03-15T01:44:11;99404.16;;;-7.29;83.91
15880;BME280;61999;51.514;14.614;2023-03-15T01:46:41;99408.59;;;-7.39;84.74
15880;BME280;61999;51.514;14.614;2023-03-15T01:49:13;99414.97;;;-7.66;86.36
15880;BME280;61999;51.514;14.614;2023-03-15T01:51:48;99414.66;;;-7.44;85.72
15880;BME280;61999;51.514;14.614;2023-03-15T01:54:26;99419.69;;;-7.38;84.97
15880;BME280;61999;51.514;14.614;2023-03-15T01:57:02;99416.78;;;-7.71;86.42
15880;BME280;61999;51.514;14.614;2023-03-15T01:59:37;99422.47;;;-7.54;85.59
15880;BME280;61999;51.514;14.614;2023-03-15T02:02:08;99416.78;;;-7.74;85.99
15880;BME280;61999;51.514;14.614;2023-03-15T02:04:44;99425.84;;;-7.52;85.18
15880;BME280;61999;51.514;14.614;2023-03-15T02:07:16;99425.75;;;-7.45;84.87
15880;BME280;61999;51.514;14.614;2023-03-15T02:09:53;99425.88;;;-7.53;83.82
15880;BME280;61999;51.514;14.614;2023-03-15T02:12:25;99422.69;;;-7.67;84.77
15880;BME280;61999;51.514;14.614;2023-03-15T02:14:54;99421.31;;;-7.34;83.52
15880;BME280;61999;51.514;14.614;2023-03-15T02:17:32;99418.69;;;-7.30;83.71
15880;BME280;61999;51.514;14.614;2023-03-15T02:20:18;99418.25;;;-7.03;82.98
15880;BME280;61999;51.514;14.614;2023-03-15T02:22:55;99417.50;;;-6.62;80.70
15880;BME280;61999;51.514;14.614;2023-03-15T02:25:37;99418.47;;;-6.68;79.21
15880;BME280;61999;51.514;14.614;2023-03-15T02:28:14;99416.41;;;-6.97;79.18
15880;BME280;61999;51.514;14.614;2023-03-15T02:30:44;99423.97;;;-6.89;80.62
15880;BME280;61999;51.514;14.614;2023-03-15T02:33:20;99418.78;;;-6.86;79.03
15880;BME280;61999;51.514;14.614;2023-03-15T02:35:49;99426.47;;;-6.86;79.59
15880;BME280;61999;51.514;14.614;2023-03-15T02:38:18;99418.06;;;-6.94;79.62
15880;BME280;61999;51.514;14.614;2023-03-15T02:40:50;99429.38;;;-7.04;79.77
15880;BME280;61999;51.514;14.614;2023-03-15T02:43:27;99428.94;;;-7.30;81.18
15880;BME280;61999;51.514;14.614;2023-03-15T02:45:57;99427.59;;;-6.99;80.83
15880;BME280;61999;51.514;14.614;2023-03-15T02:48:26;99423.47;;;-6.62;79.33
15880;BME280;61999;51.514;14.614;2023-03-15T02:50:55;99425.72;;;-6.46;77.31
15880;BME280;61999;51.514;14.614;2023-03-15T02:53:23;99435.31;;;-7.02;78.50
15880;BME280;61999;51.514;14.614;2023-03-15T02:55:51;99430.88;;;-6.94;79.60
15880;BME280;61999;51.514;14.614;2023-03-15T02:58:20;99436.94;;;-6.50;77.72
15880;BME280;61999;51.514;14.614;2023-03-15T03:00:49;99449.91;;;-7.08;79.09
15880;BME280;61999;51.514;14.614;2023-03-15T03:03:18;99453.53;;;-7.21;79.69
15880;BME280;61999;51.514;14.614;2023-03-15T03:05:46;99445.94;;;-6.76;79.22
15880;BME280;61999;51.514;14.614;2023-03-15T03:08:14;99453.56;;;-7.22;79.02
15880;BME280;61999;51.514;14.614;2023-03-15T03:10:42;99454.59;;;-6.83;79.45
15880;BME280;61999;51.514;14.614;2023-03-15T03:13:10;99459.78;;;-6.40;77.17
15880;BME280;61999;51.514;14.614;2023-03-15T03:15:40;99453.09;;;-6.93;76.73
15880;BME280;61999;51.514;14.614;2023-03-15T03:18:11;99459.59;;;-6.74;76.41
15880;BME280;61999;51.514;14.614;2023-03-15T03:20:39;99469.66;;;-5.78;75.28
15880;BME280;61999;51.514;14.614;2023-03-15T03:23:07;99469.50;;;-6.10;73.54
15880;BME280;61999;51.514;14.614;2023-03-15T03:25:35;99470.91;;;-5.97;74.34
15880;BME280;61999;51.514;14.614;2023-03-15T03:28:03;99470.91;;;-6.39;73.64
15880;BME280;61999;51.514;14.614;2023-03-15T03:30:31;99481.88;;;-6.79;75.37
15880;BME280;61999;51.514;14.614;2023-03-15T03:33:00;99483.19;;;-6.56;75.69
15880;BME280;61999;51.514;14.614;2023-03-15T03:35:31;99485.16;;;-6.71;77.45
15880;BME280;61999;51.514;14.614;2023-03-15T03:37:58;99486.91;;;-6.73;77.30
15880;BME280;61999;51.514;14.614;2023-03-15T03:40:26;99494.31;;;-7.09;78.22
15880;BME280;61999;51.514;14.614;2023-03-15T03:42:54;99489.78;;;-6.93;77.87
15880;BME280;61999;51.514;14.614;2023-03-15T03:45:22;99499.25;;;-6.96;77.52
15880;BME280;61999;51.514;14.614;2023-03-15T03:47:50;99491.34;;;-6.84;77.32
15880;BME280;61999;51.514;14.614;2023-03-15T03:50:19;99502.47;;;-7.41;78.65
15880;BME280;61999;51.514;14.614;2023-03-15T03:52:47;99505.09;;;-7.45;79.65
15880;BME280;61999;51.514;14.614;2023-03-15T03:55:16;99504.34;;;-7.50;80.05
15880;BME280;61999;51.514;14.614;2023-03-15T03:57:43;99513.84;;;-7.60;80.93
15880;BME280;61999;51.514;14.614;2023-03-15T04:00:13;99510.78;;;-7.88;82.33
15880;BME280;61999;51.514;14.614;2023-03-15T04:02:41;99514.50;;;-8.11;83.72
15880;BME280;61999;51.514;14.614;2023-03-15T04:05:10;99517.00;;;-8.09;83.66
15880;BME280;61999;51.514;14.614;2023-03-15T04:07:39;99512.91;;;-8.24;84.63
15880;BME280;61999;51.514;14.614;2023-03-15T04:10:10;99521.47;;;-8.25;84.39
15880;BME280;61999;51.514;14.614;2023-03-15T04:12:41;99526.25;;;-7.98;84.49
15880;BME280;61999;51.514;14.614;2023-03-15T04:15:10;99531.25;;;-7.88;83.92
15880;BME280;61999;51.514;14.614;2023-03-15T04:17:39;99532.00;;;-7.79;83.14
15880;BME280;61999;51.514;14.614;2023-03-15T04:20:08;99535.63;;;-7.98;83.40
15880;BME280;61999;51.514;14.614;2023-03-15T04:22:40;99536.44;;;-7.94;83.42
15880;BME280;61999;51.514;14.614;2023-03-15T04:25:08;99546.81;;;-8.07;84.80
15880;BME280;61999;51.514;14.614;2023-03-15T04:27:36;99541.59;;;-7.98;84.41
15880;BME280;61999;51.514;14.614;2023-03-15T04:30:05;99547.16;;;-8.40;86.55
15880;BME280;61999;51.514;14.614;2023-03-15T04:32:33;99553.88;;;-8.30;86.36
15880;BME280;61999;51.514;14.614;2023-03-15T04:35:02;99559.13;;;-8.46;86.34
15880;BME280;61999;51.514;14.614;2023-03-15T04:37:31;99555.66;;;-8.37;86.22
15880;BME280;61999;51.514;14.614;2023-03-15T04:40:00;99558.84;;;-8.15;86.02
15880;BME280;61999;51.514;14.614;2023-03-15T04:42:28;99564.00;;;-8.21;86.16
15880;BME280;61999;51.514;14.614;2023-03-15T04:44:56;99564.66;;;-8.01;85.30
15880;BME280;61999;51.514;14.614;2023-03-15T04:47:24;99574.91;;;-8.02;83.48
15880;BME280;61999;51.514;14.614;2023-03-15T04:49:52;99573.28;;;-8.11;84.47
15880;BME280;61999;51.514;14.614;2023-03-15T04:52:20;99579.38;;;-8.24;83.67
15880;BME280;61999;51.514;14.614;2023-03-15T04:54:48;99581.91;;;-8.21;84.97
15880;BME280;61999;51.514;14.614;2023-03-15T04:57:17;99579.47;;;-8.33;85.41
15880;BME280;61999;51.514;14.614;2023-03-15T04:59:45;99587.00;;;-8.16;85.27
15880;BME280;61999;51.514;14.614;2023-03-15T05:02:13;99597.25;;;-8.21;85.21
15880;BME280;61999;51.514;14.614;2023-03-15T05:04:41;99604.00;;;-8.17;85.07
15880;BME280;61999;51.514;14.614;2023-03-15T05:07:09;99595.47;;;-8.13;85.71
15880;BME280;61999;51.514;14.614;2023-03-15T05:09:37;99597.19;;;-8.15;84.85
15880;BME280;61999;51.514;14.614;2023-03-15T05:12:07;99603.81;;;-7.95;83.84
15880;BME280;61999;51.514;14.614;2023-03-15T05:14:37;99611.47;;;-7.95;83.92
15880;BME280;61999;51.514;14.614;2023-03-15T05:17:05;99616.22;;;-7.62;83.01
15880;BME280;61999;51.514;14.614;2023-03-15T05:19:33;99618.00;;;-7.68;82.59
15880;BME280;61999;51.514;14.614;2023-03-15T05:22:02;99619.94;;;-7.87;83.03
15880;BME280;61999;51.514;14.614;2023-03-15T05:24:30;99642.47;;;-7.46;81.54
15880;BME280;61999;51.514;14.614;2023-03-15T05:26:58;99633.03;;;-7.39;81.00
15880;BME280;61999;51.514;14.614;2023-03-15T05:29:26;99643.88;;;-7.20;80.60
15880;BME280;61999;51.514;14.614;2023-03-15T05:31:56;99648.19;;;-7.24;79.67
15880;BME280;61999;51.514;14.614;2023-03-15T05:34:24;99648.34;;;-7.36;79.96
15880;BME280;61999;51.514;14.614;2023-03-15T05:36:52;99651.84;;;-7.42;80.31
15880;BME280;61999;51.514;14.614;2023-03-15T05:39:20;99657.94;;;-7.54;80.00
15880;BME280;61999;51.514;14.614;2023-03-15T05:41:48;99659.69;;;-7.60;81.54
15880;BME280;61999;51.514;14.614;2023-03-15T05:44:17;99660.59;;;-7.63;81.96
15880;BME280;61999;51.514;14.614;2023-03-15T05:46:45;99662.84;;;-7.35;81.10
15880;BME280;61999;51.514;14.614;2023-03-15T05:49:14;99671.22;;;-7.22;79.77
15880;BME280;61999;51.514;14.614;2023-03-15T05:51:44;99673.78;;;-7.24;79.63
15880;BME280;61999;51.514;14.614;2023-03-15T05:54:14;99683.56;;;-7.57;81.19
15880;BME280;61999;51.514;14.614;2023-03-15T05:56:42;99680.13;;;-7.56;81.33
15880;BME280;61999;51.514;14.614;2023-03-15T05:59:10;99686.59;;;-7.25;81.15
15880;BME280;61999;51.514;14.614;2023-03-15T06:01:38;99685.94;;;-6.75;79.43
15880;BME280;61999;51.514;14.614;2023-03-15T06:04:06;99690.34;;;-6.83;77.56
15880;BME280;61999;51.514;14.614;2023-03-15T06:06:35;99694.84;;;-7.00;77.89
15880;BME280;61999;51.514;14.614;2023-03-15T06:09:04;99696.66;;;-7.09;78.18
15880;BME280;61999;51.514;14.614;2023-03-15T06:11:31;99702.97;;;-7.37;79.75
15880;BME280;61999;51.514;14.614;2023-03-15T06:14:00;99702.06;;;-7.35;80.27
15880;BME280;61999;51.514;14.614;2023-03-15T06:16:28;99710.63;;;-7.37;80.54
15880;BME280;61999;51.514;14.614;2023-03-15T06:18:56;99708.13;;;-7.40;80.61
15880;BME280;61999;51.514;14.614;2023-03-15T06:21:24;99712.31;;;-7.35;81.29
15880;BME280;61999;51.514;14.614;2023-03-15T06:23:53;99723.66;;;-7.56;80.98
15880;BME280;61999;51.514;14.614;2023-03-15T06:26:21;99723.44;;;-7.37;80.95
15880;BME280;61999;51.514;14.614;2023-03-15T06:28:49;99719.47;;;-7.66;80.82
15880;BME280;61999;51.514;14.614;2023-03-15T06:31:17;99732.44;;;-7.84;82.67
15880;BME280;61999;51.514;14.614;2023-03-15T06:33:45;99728.97;;;-7.77;82.75
15880;BME280;61999;51.514;14.614;2023-03-15T06:36:13;99727.75;;;-7.41;82.72
15880;BME280;61999;51.514;14.614;2023-03-15T06:38:41;99728.59;;;-7.40;80.99
15880;BME280;61999;51.514;14.614;2023-03-15T06:41:10;99731.97;;;-7.35;79.58
15880;BME280;61999;51.514;14.614;2023-03-15T06:43:41;99734.59;;;-7.41;79.96
15880;BME280;61999;51.514;14.614;2023-03-15T06:46:09;99741.38;;;-7.37;80.03
15880;BME280;61999;51.514;14.614;2023-03-15T06:48:37;99746.81;;;-7.69;80.74
15880;BME280;61999;51.514;14.614;2023-03-15T06:51:05;99751.63;;;-7.40;81.17
15880;BME280;61999;51.514;14.614;2023-03-15T06:53:33;99759.31;;;-7.40;80.09
15880;BME280;61999;51.514;14.614;2023-03-15T06:56:02;99764.38;;;-7.31;79.03
15880;BME280;61999;51.514;14.614;2023-03-15T06:58:31;99756.59;;;-7.23;78.92
15880;BME280;61999;51.514;14.614;2023-03-15T07:00:59;99769.25;;;-7.10;78.62
15880;BME280;61999;51.514;14.614;2023-03-15T07:03:27;99767.56;;;-7.11;78.93
15880;BME280;61999;51.514;14.614;2023-03-15T07:05:55;99777.06;;;-7.22;78.82
15880;BME280;61999;51.514;14.614;2023-03-15T07:08:25;99777.53;;;-6.89;78.75
15880;BME280;61999;51.514;14.614;2023-03-15T07:10:53;99780.22;;;-7.00;78.38
15880;BME280;61999;51.514;14.614;2023-03-15T07:13:21;99776.72;;;-6.94;77.88
15880;BME280;61999;51.514;14.614;2023-03-15T07:15:52;99779.44;;;-7.07;77.96
15880;BME280;61999;51.514;14.614;2023-03-15T07:18:21;99781.81;;;-6.88;77.90
15880;BME280;61999;51.514;14.614;2023-03-15T07:20:55;99780.69;;;-6.69;77.41
15880;BME280;61999;51.514;14.614;2023-03-15T07:23:24;99791.31;;;-6.96;76.39
15880;BME280;61999;51.514;14.614;2023-03-15T07:25:52;99783.47;;;-6.84;78.46
15880;BME280;61999;51.514;14.614;2023-03-15T07:28:23;99793.03;;;-6.30;76.52
15880;BME280;61999;51.514;14.614;2023-03-15T07:30:54;99795.19;;;-6.65;76.01
15880;BME280;61999;51.514;14.614;2023-03-15T07:33:24;99798.94;;;-6.27;74.97
15880;BME280;61999;51.514;14.614;2023-03-15T07:35:54;99805.72;;;-6.21;75.45
15880;BME280;61999;51.514;14.614;2023-03-15T07:38:24;99803.78;;;-6.08;75.07
15880;BME280;61999;51.514;14.614;2023-03-15T07:40:55;99803.78;;;-6.08;73.58
15880;BME280;61999;51.514;14.614;2023-03-15T07:43:23;99806.53;;;-5.63;72.97
15880;BME280;61999;51.514;14.614;2023-03-15T07:45:53;99806.97;;;-5.38;71.60
15880;BME280;61999;51.514;14.614;2023-03-15T07:48:21;99798.53;;;-5.45;71.25
15880;BME280;61999;51.514;14.614;2023-03-15T07:50:49;99804.28;;;-5.34;70.88
15880;BME280;61999;51.514;14.614;2023-03-15T07:53:17;99801.34;;;-5.11;69.92
15880;BME280;61999;51.514;14.614;2023-03-15T07:55:46;99798.41;;;-5.39;67.79
15880;BME280;61999;51.514;14.614;2023-03-15T07:58:14;99807.97;;;-4.99;68.24
15880;BME280;61999;51.514;14.614;2023-03-15T08:00:46;99806.53;;;-5.15;67.51
15880;BME280;61999;51.514;14.614;2023-03-15T08:03:16;99808.75;;;-4.53;67.20
15880;BME280;61999;51.514;14.614;2023-03-15T08:05:44;99801.56;;;-3.99;65.05
15880;BME280;61999;51.514;14.614;2023-03-15T08:08:12;99804.13;;;-3.61;66.40
15880;BME280;61999;51.514;14.614;2023-03-15T08:10:40;99806.38;;;-3.85;63.49
15880;BME280;61999;51.514;14.614;2023-03-15T08:13:09;99800.38;;;-3.50;64.24
15880;BME280;61999;51.514;14.614;2023-03-15T08:15:37;99811.59;;;-3.86;60.97
15880;BME280;61999;51.514;14.614;2023-03-15T08:18:05;99820.94;;;-4.21;62.68
15880;BME280;61999;51.514;14.614;2023-03-15T08:20:34;99829.56;;;-3.85;63.49
15880;BME280;61999;51.514;14.614;2023-03-15T08:23:02;99838.81;;;-4.57;63.54
15880;BME280;61999;51.514;14.614;2023-03-15T08:25:30;99842.66;;;-4.76;63.85
15880;BME280;61999;51.514;14.614;2023-03-15T08:27:59;99840.47;;;-4.13;63.10
15880;BME280;61999;51.514;14.614;2023-03-15T08:30:27;99844.66;;;-4.49;62.06
15880;BME280;61999;51.514;14.614;2023-03-15T08:32:55;99831.94;;;-4.15;64.02
15880;BME280;61999;51.514;14.614;2023-03-15T08:35:23;99841.03;;;-3.62;61.82
15880;BME280;61999;51.514;14.614;2023-03-15T08:37:52;99842.47;;;-3.86;61.77
15880;BME280;61999;51.514;14.614;2023-03-15T08:40:21;99843.22;;;-3.46;61.33
15880;BME280;61999;51.514;14.614;2023-03-15T08:42:53;99851.91;;;-3.50;61.49
15880;BME280;61999;51.514;14.614;2023-03-15T08:45:22;99851.75;;;-3.43;60.73
15880;BME280;61999;51.514;14.614;2023-03-15T08:47:54;99864.25;;;-4.42;61.04
15880;BME280;61999;51.514;14.614;2023-03-15T08:50:22;99865.28;;;-4.10;63.89
15880;BME280;61999;51.514;14.614;2023-03-15T08:52:52;99867.56;;;-4.37;61.54
15880;BME280;61999;51.514;14.614;2023-03-15T08:55:21;99869.91;;;-4.24;63.90
15880;BME280;61999;51.514;14.614;2023-03-15T08:57:49;99870.78;;;-3.48;62.86
15880;BME280;61999;51.514;14.614;2023-03-15T09:00:17;99868.81;;;-2.72;60.28
15880;BME280;61999;51.514;14.614;2023-03-15T09:02:49;99880.25;;;-2.83;59.06
15880;BME280;61999;51.514;14.614;2023-03-15T09:05:19;99876.56;;;-2.41;59.32
15880;BME280;61999;51.514;14.614;2023-03-15T09:07:47;99888.84;;;-2.82;57.81
15880;BME280;61999;51.514;14.614;2023-03-15T09:10:18;99887.75;;;-3.76;60.45
15880;BME280;61999;51.514;14.614;2023-03-15T09:12:48;99887.59;;;-3.34;61.29
15880;BME280;61999;51.514;14.614;2023-03-15T09:15:18;99896.91;;;-3.27;61.70
15880;BME280;61999;51.514;14.614;2023-03-15T09:17:49;99894.97;;;-2.86;60.86
15880;BME280;61999;51.514;14.614;2023-03-15T09:20:18;99896.41;;;-3.09;59.11
15880;BME280;61999;51.514;14.614;2023-03-15T09:22:51;99900.19;;;-3.22;61.71
15880;BME280;61999;51.514;14.614;2023-03-15T09:25:22;99907.06;;;-2.88;60.17
15880;BME280;61999;51.514;14.614;2023-03-15T09:27:50;99898.16;;;-2.45;58.73
15880;BME280;61999;51.514;14.614;2023-03-15T09:30:18;99892.75;;;-2.06;57.91
15880;BME280;61999;51.514;14.614;2023-03-15T09:32:47;99910.81;;;-1.77;59.48
15880;BME280;61999;51.514;14.614;2023-03-15T09:35:18;99911.44;;;-2.28;60.93
15880;BME280;61999;51.514;14.614;2023-03-15T09:37:48;99905.41;;;-2.27;65.05
15880;BME280;61999;51.514;14.614;2023-03-15T09:43:03;99919.59;;;-2.73;66.30
15880;BME280;61999;51.514;14.614;2023-03-15T09:45:54;99931.31;;;-2.30;67.75
15880;BME280;61999;51.514;14.614;2023-03-15T09:48:33;99931.44;;;-1.75;66.07
15880;BME280;61999;51.514;14.614;2023-03-15T09:51:10;99936.22;;;-1.61;64.62
15880;BME280;61999;51.514;14.614;2023-03-15T09:53:45;99941.47;;;-1.65;63.55
15880;BME280;61999;51.514;14.614;2023-03-15T09:56:26;99934.88;;;-1.75;65.30
15880;BME280;61999;51.514;14.614;2023-03-15T09:58:58;99942.47;;;-1.98;66.62
15880;BME280;61999;51.514;14.614;2023-03-15T10:01:30;99940.91;;;-2.35;65.33
15880;BME280;61999;51.514;14.614;2023-03-15T10:04:07;99949.59;;;-2.38;62.59
15880;BME280;61999;51.514;14.614;2023-03-15T10:06:41;99935.84;;;-2.71;65.36
15880;BME280;61999;51.514;14.614;2023-03-15T10:09:23;99956.88;;;-2.86;66.83
15880;BME280;61999;51.514;14.614;2023-03-15T10:12:03;99949.41;;;-2.00;64.14
15880;BME280;61999;51.514;14.614;2023-03-15T10:14:57;99951.63;;;-1.58;62.04
15880;BME280;61999;51.514;14.614;2023-03-15T10:17:38;99948.38;;;-1.95;60.82
15880;BME280;61999;51.514;14.614;2023-03-15T10:20:12;99946.56;;;-2.22;61.37
15880;BME280;61999;51.514;14.614;2023-03-15T10:22:49;99943.97;;;-2.53;63.77
15880;BME280;61999;51.514;14.614;2023-03-15T10:25:23;99950.78;;;-2.18;65.01
15880;BME280;61999;51.514;14.614;2023-03-15T10:27:58;99956.50;;;-2.08;63.29
15880;BME280;61999;51.514;14.614;2023-03-15T10:30:30;99948.13;;;-2.17;62.16
15880;BME280;61999;51.514;14.614;2023-03-15T10:33:02;99947.44;;;-1.92;61.70
15880;BME280;61999;51.514;14.614;2023-03-15T10:35:32;99956.50;;;-2.08;60.46
15880;BME280;61999;51.514;14.614;2023-03-15T10:38:00;99952.53;;;-2.51;64.12
15880;BME280;61999;51.514;14.614;2023-03-15T10:40:42;99952.28;;;-2.42;61.79
15880;BME280;61999;51.514;14.614;2023-03-15T10:43:20;99952.44;;;-2.16;61.89
15880;BME280;61999;51.514;14.614;2023-03-15T10:46:00;99946.69;;;-2.58;62.42
15880;BME280;61999;51.514;14.614;2023-03-15T10:48:31;99954.38;;;-2.57;61.39
15880;BME280;61999;51.514;14.614;2023-03-15T10:51:03;99963.41;;;-2.40;62.20
15880;BME280;61999;51.514;14.614;2023-03-15T10:53:32;99957.88;;;-2.58;62.40
15880;BME280;61999;51.514;14.614;2023-03-15T10:56:04;99941.66;;;-2.00;61.08
15880;BME280;61999;51.514;14.614;2023-03-15T10:58:41;99957.78;;;-1.92;59.66
15880;BME280;61999;51.514;14.614;2023-03-15T11:01:24;99953.56;;;-1.67;59.38
15880;BME280;61999;51.514;14.614;2023-03-15T11:04:14;99960.00;;;-1.50;58.98
15880;BME280;61999;51.514;14.614;2023-03-15T11:06:47;99958.44;;;-0.76;58.08
15880;BME280;61999;51.514;14.614;2023-03-15T11:09:18;99958.63;;;-1.92;57.01
15880;BME280;61999;51.514;14.614;2023-03-15T11:11:52;99953.75;;;-1.16;57.15
15880;BME280;61999;51.514;14.614;2023-03-15T11:14:23;99967.00;;;-1.83;59.22
15880;BME280;61999;51.514;14.614;2023-03-15T11:16:55;99950.75;;;-1.87;59.90
15880;BME280;61999;51.514;14.614;2023-03-15T11:19:27;99958.31;;;-1.81;60.08
15880;BME280;61999;51.514;14.614;2023-03-15T11:21:58;99958.59;;;-1.60;59.94
15880;BME280;61999;51.514;14.614;2023-03-15T11:24:30;99956.91;;;-1.61;59.02
15880;BME280;61999;51.514;14.614;2023-03-15T11:27:05;99958.28;;;-1.51;57.97
15880;BME280;61999;51.514;14.614;2023-03-15T11:29:41;99953.47;;;-1.63;60.73
15880;BME280;61999;51.514;14.614;2023-03-15T11:32:17;99969.78;;;-2.21;60.21
15880;BME280;61999;51.514;14.614;2023-03-15T11:34:55;99962.28;;;-2.30;63.32
15880;BME280;61999;51.514;14.614;2023-03-15T11:37:31;99961.00;;;-2.15;62.71
15880;BME280;61999;51.514;14.614;2023-03-15T11:40:11;99958.81;;;-1.13;59.25
15880;BME280;61999;51.514;14.614;2023-03-15T11:42:48;99950.47;;;-1.78;59.29
15880;BME280;61999;51.514;14.614;2023-03-15T11:45:29;99950.97;;;-0.59;58.39
15880;BME280;61999;51.514;14.614;2023-03-15T11:48:08;99954.75;;;-0.94;57.64
15880;BME280;61999;51.514;14.614;2023-03-15T11:50:38;99951.06;;;-1.99;59.44
15880;BME280;61999;51.514;14.614;2023-03-15T11:53:12;99954.75;;;-2.06;61.67
15880;BME280;61999;51.514;14.614;2023-03-15T11:55:47;99959.44;;;-1.91;62.97
15880;BME280;61999;51.514;14.614;2023-03-15T11:58:32;99966.94;;;-1.52;60.33
15880;BME280;61999;51.514;14.614;2023-03-15T12:01:03;99976.50;;;-1.28;57.63
15880;BME280;61999;51.514;14.614;2023-03-15T12:03:39;99968.03;;;-1.05;59.02
15880;BME280;61999;51.514;14.614;2023-03-15T12:09:46;99975.06;;;-1.65;57.02
15880;BME280;61999;51.514;14.614;2023-03-15T12:12:35;99964.44;;;-2.15;60.93
15880;BME280;61999;51.514;14.614;2023-03-15T12:15:39;99967.91;;;-1.56;59.63
15880;BME280;61999;51.514;14.614;2023-03-15T12:18:04;99962.19;;;-1.10;55.47
15880;BME280;61999;51.514;14.614;2023-03-15T12:20:36;99969.38;;;-0.68;55.63
15880;BME280;61999;51.514;14.614;2023-03-15T12:23:21;99967.13;;;-1.30;55.30
15880;BME280;61999;51.514;14.614;2023-03-15T12:25:58;99965.63;;;-0.59;53.90
15880;BME280;61999;51.514;14.614;2023-03-15T12:28:36;99969.50;;;-0.71;53.64
15880;BME280;61999;51.514;14.614;2023-03-15T12:31:07;99961.59;;;-0.18;54.09
15880;BME280;61999;51.514;14.614;2023-03-15T12:33:47;99966.50;;;0.13;53.31
15880;BME280;61999;51.514;14.614;2023-03-15T12:36:28;99956.25;;;0.10;54.36
15880;BME280;61999;51.514;14.614;2023-03-15T12:39:18;99955.38;;;-0.62;52.16
15880;BME280;61999;51.514;14.614;2023-03-15T12:41:49;99964.22;;;-0.68;51.57
15880;BME280;61999;51.514;14.614;2023-03-15T12:44:36;99957.69;;;0.18;49.60
15880;BME280;61999;51.514;14.614;2023-03-15T12:47:06;99953.31;;;1.28;47.55
15880;BME280;61999;51.514;14.614;2023-03-15T12:49:39;99953.94;;;0.03;48.53
15880;BME280;61999;51.514;14.614;2023-03-15T12:52:40;99943.72;;;-0.02;48.32
15880;BME280;61999;51.514;14.614;2023-03-15T12:55:14;99945.28;;;0.49;47.82
15880;BME280;61999;51.514;14.614;2023-03-15T12:57:48;99956.38;;;0.07;47.61
15880;BME280;61999;51.514;14.614;2023-03-15T13:00:20;99954.00;;;-0.98;50.05
15880;BME280;61999;51.514;14.614;2023-03-15T13:02:53;99962.16;;;-0.58;50.08
15880;BME280;61999;51.514;14.614;2023-03-15T13:05:32;99959.06;;;-0.94;53.15
15880;BME280;61999;51.514;14.614;2023-03-15T13:08:08;99959.28;;;-1.85;53.19
15880;BME280;61999;51.514;14.614;2023-03-15T13:11:01;99960.06;;;-0.47;53.38
15880;BME280;61999;51.514;14.614;2023-03-15T13:14:00;99970.88;;;-1.12;52.02
15880;BME280;61999;51.514;14.614;2023-03-15T13:16:39;99994.47;;;-0.95;56.33